createdAt,value
2018-11-12T00:01:24.074Z,16.00
2018-11-12T00:03:52.410Z,15.00
2018-11-12T00:06:20.643Z,16.83
2018-11-12T00:08:48.848Z,17.73
2018-11-12T00:11:17.063Z,16.40
2018-11-12T00:13:45.445Z,13.70
2018-11-12T00:16:13.612Z,13.40
2018-11-12T00:18:41.825Z,17.87
2018-11-12T00:21:10.019Z,16.27
2018-11-12T00:23:38.236Z,15.43
2018-11-12T00:26:06.718Z,15.13
2018-11-12T00:28:35.067Z,15.27
2018-11-12T00:31:03.370Z,16.90
2018-11-12T00:33:31.573Z,14.90
2018-11-12T00:35:59.729Z,15.50
2018-11-12T00:38:27.966Z,14.20
2018-11-12T00:40:56.222Z,15.17
2018-11-12T00:43:24.456Z,14.87
2018-11-12T00:45:52.585Z,15.10
2018-11-12T00:48:20.775Z,17.47
2018-11-12T00:50:48.957Z,16.83
2018-11-12T00:53:17.242Z,17.80
2018-11-12T00:55:45.430Z,19.83
2018-11-12T00:58:14.842Z,19.77
2018-11-12T01:00:43.800Z,14.10
2018-11-12T01:03:11.995Z,18.00
2018-11-12T01:05:40.324Z,16.17
2018-11-12T01:08:08.589Z,17.63
2018-11-12T01:10:36.726Z,18.03
2018-11-12T01:13:04.972Z,21.00
2018-11-12T01:15:33.280Z,16.63
2018-11-12T01:18:01.470Z,15.63
2018-11-12T01:20:29.663Z,19.10
2018-11-12T01:22:57.825Z,22.93
2018-11-12T01:25:25.964Z,20.43
2018-11-12T01:27:54.268Z,22.63
2018-11-12T01:30:22.434Z,22.47
2018-11-12T01:32:50.694Z,22.37
2018-11-12T01:35:18.868Z,22.27
2018-11-12T01:37:47.035Z,20.60
2018-11-12T01:40:15.713Z,19.50
2018-11-12T01:42:44.196Z,20.40
2018-11-12T01:45:14.016Z,19.47
2018-11-12T01:47:42.828Z,18.83
2018-11-12T01:50:11.993Z,19.63
2018-11-12T01:52:40.367Z,18.33
2018-11-12T01:55:09.511Z,21.23
2018-11-12T01:57:37.800Z,21.67
2018-11-12T02:00:07.319Z,20.03
2018-11-12T02:02:35.525Z,19.73
2018-11-12T02:05:03.829Z,23.33
2018-11-12T02:07:31.794Z,22.13
2018-11-12T02:09:59.968Z,18.40
2018-11-12T02:12:28.294Z,20.67
2018-11-12T02:14:56.542Z,20.30
2018-11-12T02:17:24.774Z,23.67
2018-11-12T02:19:53.093Z,24.10
2018-11-12T02:22:21.874Z,23.00
2018-11-12T02:24:50.146Z,26.17
2018-11-12T02:27:18.391Z,24.03
2018-11-12T02:29:46.577Z,21.37
2018-11-12T02:32:14.877Z,28.33
2018-11-12T02:34:43.051Z,26.63
2018-11-12T02:37:11.198Z,23.30
2018-11-12T02:39:39.459Z,27.60
2018-11-12T02:42:07.628Z,23.93
2018-11-12T02:44:35.871Z,27.97
2018-11-12T02:47:04.109Z,27.07
2018-11-12T02:49:32.261Z,26.53
2018-11-12T02:52:00.515Z,28.73
2018-11-12T02:54:28.692Z,27.43
2018-11-12T02:56:56.902Z,30.43
2018-11-12T02:59:25.092Z,28.13
2018-11-12T03:01:53.405Z,28.00
2018-11-12T03:04:21.543Z,25.67
2018-11-12T03:06:49.679Z,28.50
2018-11-12T03:09:17.814Z,28.80
2018-11-12T03:11:46.050Z,27.80
2018-11-12T03:14:14.337Z,27.40
2018-11-12T03:16:42.495Z,27.80
2018-11-12T03:19:10.647Z,29.57
2018-11-12T03:21:38.788Z,29.03
2018-11-12T03:24:07.740Z,30.30
2018-11-12T03:26:35.896Z,30.20
2018-11-12T03:29:04.158Z,29.90
2018-11-12T03:31:32.347Z,31.00
2018-11-12T03:34:00.589Z,27.27
2018-11-12T03:36:28.734Z,30.00
2018-11-12T03:38:57.396Z,29.83
2018-11-12T03:41:25.644Z,33.80
2018-11-12T03:43:54.843Z,29.73
2018-11-12T03:46:23.138Z,32.50
2018-11-12T03:48:51.702Z,32.03
2018-11-12T03:51:19.951Z,37.77
2018-11-12T03:53:48.253Z,31.00
2018-11-12T03:56:16.421Z,34.53
2018-11-12T03:58:44.627Z,35.03
2018-11-12T04:01:12.837Z,33.90
2018-11-12T04:03:41.059Z,33.33
2018-11-12T04:06:09.327Z,31.60
2018-11-12T04:08:37.520Z,37.00
2018-11-12T04:11:06.009Z,32.70
2018-11-12T04:13:34.269Z,36.40
2018-11-12T04:16:02.571Z,32.23
2018-11-12T04:18:30.931Z,30.03
2018-11-12T04:20:59.157Z,30.63
2018-11-12T04:23:27.426Z,33.20
2018-11-12T04:25:55.734Z,35.30
2018-11-12T04:28:23.884Z,36.07
2018-11-12T04:30:52.947Z,35.47
2018-11-12T04:33:21.134Z,36.13
2018-11-12T04:35:49.317Z,32.30
2018-11-12T04:38:17.448Z,36.27
2018-11-12T04:40:46.205Z,36.50
2018-11-12T04:43:14.460Z,30.47
2018-11-12T04:45:42.855Z,35.73
2018-11-12T04:48:11.082Z,36.63
2018-11-12T04:50:39.231Z,39.67
2018-11-12T04:53:07.407Z,37.27
2018-11-12T04:55:35.590Z,35.47
2018-11-12T04:58:03.936Z,39.03
2018-11-12T05:00:32.093Z,35.40
2018-11-12T05:03:00.537Z,34.33
2018-11-12T05:05:29.193Z,39.73
2018-11-12T05:07:57.424Z,38.93
2018-11-12T05:10:26.548Z,38.70
2018-11-12T05:12:55.895Z,38.83
2018-11-12T05:15:24.806Z,39.33
2018-11-12T05:17:53.135Z,36.47
2018-11-12T05:20:22.896Z,42.23
2018-11-12T05:22:52.099Z,37.23
2018-11-12T05:25:20.573Z,47.03
2018-11-12T05:27:49.077Z,37.17
2018-11-12T05:30:19.062Z,38.40
2018-11-12T05:32:47.406Z,37.80
2018-11-12T05:35:17.120Z,41.43
2018-11-12T05:37:45.891Z,41.93
2018-11-12T05:40:21.343Z,38.83
2018-11-12T05:42:50.043Z,41.63
2018-11-12T05:45:19.545Z,41.17
2018-11-12T05:47:48.052Z,43.93
2018-11-12T05:50:23.111Z,49.27
2018-11-12T05:52:53.203Z,35.73
2018-11-12T05:55:22.758Z,39.83
2018-11-12T05:57:51.212Z,43.20
2018-11-12T06:00:21.486Z,35.87
2018-11-12T06:02:49.777Z,42.47
2018-11-12T06:05:18.256Z,41.70
2018-11-12T06:07:46.368Z,42.10
2018-11-12T06:10:22.503Z,41.03
2018-11-12T06:12:51.253Z,41.53
2018-11-12T06:15:19.556Z,43.13
2018-11-12T06:17:48.505Z,43.77
2018-11-12T06:20:19.286Z,44.17
2018-11-12T06:22:47.604Z,42.83
2018-11-12T06:25:18.177Z,45.40
2018-11-12T06:27:47.810Z,43.90
2018-11-12T06:30:48.308Z,45.83
2018-11-12T06:33:16.794Z,46.13
2018-11-12T06:35:45.462Z,45.53
2018-11-12T06:38:15.791Z,53.73
2018-11-12T06:40:45.045Z,54.63
2018-11-12T06:43:14.202Z,48.30
2018-11-12T06:45:43.768Z,47.03
2018-11-12T06:48:12.652Z,48.17
2018-11-12T06:50:42.883Z,46.33
2018-11-12T06:53:13.776Z,46.20
2018-11-12T06:58:56.289Z,51.33
2018-11-12T07:01:24.887Z,45.30
2018-11-12T07:03:53.357Z,46.80
2018-11-12T07:06:21.676Z,52.53
2018-11-12T07:08:49.986Z,46.33
2018-11-12T07:11:20.956Z,46.53
2018-11-12T07:13:51.051Z,48.80
2018-11-12T07:16:20.275Z,47.07
2018-11-12T07:18:48.753Z,49.27
2018-11-12T07:21:17.509Z,53.20
2018-11-12T07:23:45.746Z,51.80
2018-11-12T07:26:14.060Z,50.33
2018-11-12T07:28:42.305Z,53.83
2018-11-12T07:31:10.558Z,58.13
2018-11-12T07:33:38.666Z,51.47
2018-11-12T07:36:06.835Z,45.50
2018-11-12T07:38:35.061Z,50.10
2018-11-12T07:41:03.449Z,56.97
2018-11-12T07:43:31.898Z,57.33
2018-11-12T07:46:00.406Z,56.43
2018-11-12T07:48:28.829Z,51.20
2018-11-12T07:50:58.071Z,53.63
2018-11-12T07:53:26.546Z,51.30
2018-11-12T07:55:55.265Z,53.20
2018-11-12T07:58:23.946Z,51.40
2018-11-12T08:00:53.052Z,48.57
2018-11-12T08:03:22.004Z,50.03
2018-11-12T08:05:50.221Z,46.40
2018-11-12T08:08:18.341Z,44.37
2018-11-12T08:10:46.650Z,52.30
2018-11-12T08:13:14.851Z,43.63
2018-11-12T08:15:43.152Z,44.00
2018-11-12T08:18:11.376Z,49.40
2018-11-12T08:20:43.068Z,45.47
2018-11-12T08:23:11.715Z,44.93
2018-11-12T08:25:39.997Z,40.43
2018-11-12T08:28:08.254Z,44.73
2018-11-12T08:30:36.777Z,41.13
2018-11-12T08:33:05.460Z,45.07
2018-11-12T08:35:33.809Z,44.90
2018-11-12T08:38:03.152Z,38.67
2018-11-12T08:40:31.820Z,41.73
2018-11-12T08:43:00.249Z,35.80
2018-11-12T08:45:34.079Z,38.83
2018-11-12T08:48:02.667Z,37.40
2018-11-12T08:50:36.000Z,37.30
2018-11-12T08:53:04.595Z,35.47
2018-11-12T08:55:36.226Z,37.00
2018-11-12T08:58:04.884Z,36.37
2018-11-12T09:00:46.689Z,35.83
2018-11-12T09:04:06.056Z,34.53
2018-11-12T09:16:36.009Z,26.80
2018-11-12T09:19:04.653Z,29.67
2018-11-12T09:21:32.932Z,28.10
2018-11-12T09:24:01.689Z,21.50
2018-11-12T09:26:29.877Z,19.83
2018-11-12T09:28:58.109Z,24.63
2018-11-12T09:31:27.102Z,19.67
2018-11-12T09:38:50.922Z,19.50
2018-11-12T09:41:19.051Z,20.83
2018-11-12T09:43:47.301Z,20.73
2018-11-12T09:46:15.419Z,19.87
2018-11-12T09:48:43.801Z,15.87
2018-11-12T09:51:12.091Z,18.00
2018-11-12T09:53:40.424Z,16.17
2018-11-12T09:56:08.555Z,16.60
2018-11-12T09:58:36.838Z,17.90
2018-11-12T10:01:05.339Z,13.50
2018-11-12T10:03:34.742Z,14.03
2018-11-12T10:06:02.800Z,12.87
2018-11-12T10:08:33.192Z,11.20
2018-11-12T10:11:02.756Z,11.37
2018-11-12T10:13:30.964Z,7.37
2018-11-12T10:15:59.994Z,9.87
2018-11-12T10:18:25.843Z,10.83
2018-11-12T10:20:54.316Z,10.47
2018-11-12T10:23:22.749Z,7.03
2018-11-12T10:25:51.050Z,10.17
2018-11-12T10:28:20.601Z,7.03
2018-11-12T10:30:48.763Z,11.40
2018-11-12T10:33:18.408Z,9.00
2018-11-12T10:35:47.689Z,11.90
2018-11-12T10:38:16.767Z,10.60
2018-11-12T10:40:45.803Z,12.97
2018-11-12T10:43:13.939Z,12.07
2018-11-12T10:45:42.081Z,13.43
2018-11-12T10:48:10.283Z,11.50
2018-11-12T10:50:38.386Z,11.67
2018-11-12T10:53:09.478Z,10.43
2018-11-12T10:55:37.719Z,9.97
2018-11-12T10:58:05.765Z,9.20
2018-11-12T11:00:39.575Z,7.67
2018-11-12T11:03:13.695Z,7.83
2018-11-12T11:05:42.996Z,9.93
2018-11-12T11:08:11.222Z,11.33
2018-11-12T11:10:39.401Z,8.43
2018-11-12T11:13:07.859Z,7.30
2018-11-12T11:15:36.503Z,8.97
2018-11-12T11:18:04.743Z,9.10
2018-11-12T11:20:32.843Z,9.80
2018-11-12T11:23:01.181Z,8.67
2018-11-12T11:25:29.483Z,9.00
2018-11-12T11:27:57.613Z,8.47
2018-11-12T11:30:26.018Z,12.50
2018-11-12T11:32:54.219Z,8.50
2018-11-12T11:35:23.928Z,13.00
2018-11-12T11:37:52.071Z,10.40
2018-11-12T11:40:22.718Z,14.77
2018-11-12T11:42:50.804Z,12.77
2018-11-12T11:45:21.280Z,10.67
2018-11-12T11:47:50.239Z,11.30
2018-11-12T11:50:20.653Z,11.70
2018-11-12T11:52:49.342Z,10.67
2018-11-12T11:55:18.877Z,11.83
2018-11-12T11:57:47.434Z,10.50
2018-11-12T12:00:18.271Z,12.50
2018-11-12T12:02:47.534Z,11.50
2018-11-12T12:05:16.567Z,12.40
2018-11-12T12:07:44.897Z,10.93
2018-11-12T12:10:13.835Z,11.57
2018-11-12T12:12:42.564Z,11.53
2018-11-12T12:15:12.200Z,11.00
2018-11-12T12:17:40.572Z,11.53
2018-11-12T12:20:10.092Z,10.40
2018-11-12T12:22:38.272Z,10.60
2018-11-12T12:25:07.090Z,9.60
2018-11-12T12:27:35.223Z,10.37
2018-11-12T12:30:03.530Z,10.77
2018-11-12T12:32:31.813Z,11.77
2018-11-12T12:35:00.154Z,9.80
2018-11-12T12:37:28.388Z,6.90
2018-11-12T12:39:56.568Z,7.40
2018-11-12T12:42:25.023Z,10.93
2018-11-12T12:45:03.250Z,7.43
2018-11-12T12:47:45.064Z,7.57
2018-11-12T12:50:14.446Z,7.20
2018-11-12T12:52:42.674Z,8.20
2018-11-12T12:55:12.229Z,8.03
2018-11-12T12:57:40.973Z,7.37
2018-11-12T13:00:09.919Z,8.33
2018-11-12T13:02:38.679Z,8.77
2018-11-12T13:05:06.912Z,8.30
2018-11-12T13:07:35.117Z,8.47
2018-11-12T13:10:03.361Z,5.87
2018-11-12T13:12:31.561Z,6.53
2018-11-12T13:14:59.907Z,5.43
2018-11-12T13:17:27.919Z,7.37
2018-11-12T13:19:57.104Z,5.83
2018-11-12T13:22:26.499Z,4.83
2018-11-12T13:24:54.761Z,5.77
2018-11-12T13:27:22.933Z,5.50
2018-11-12T13:29:51.082Z,7.67
2018-11-12T13:32:19.203Z,4.83
2018-11-12T13:34:47.311Z,5.57
2018-11-12T13:37:15.393Z,6.60
2018-11-12T13:39:43.632Z,5.60
2018-11-12T13:42:11.698Z,5.60
2018-11-12T13:44:39.881Z,4.87
2018-11-12T13:47:08.045Z,4.90
2018-11-12T13:49:36.164Z,6.43
2018-11-12T13:52:04.500Z,4.73
2018-11-12T13:54:32.619Z,4.70
2018-11-12T13:57:00.806Z,5.37
2018-11-12T13:59:28.936Z,4.97
2018-11-12T14:01:57.162Z,4.20
2018-11-12T14:04:25.263Z,5.77
2018-11-12T14:06:53.579Z,5.13
2018-11-12T14:09:21.770Z,5.00
2018-11-12T14:11:53.949Z,5.63
2018-11-12T14:14:23.097Z,5.43
2018-11-12T14:16:51.237Z,7.00
2018-11-12T14:19:19.450Z,5.73
2018-11-12T14:21:47.626Z,7.37
2018-11-12T14:24:15.788Z,7.43
2018-11-12T14:26:47.037Z,6.43
2018-11-12T14:29:20.688Z,6.47
2018-11-12T14:31:51.157Z,7.03
2018-11-12T14:34:21.403Z,6.57
2018-11-12T14:36:51.219Z,6.53
2018-11-12T14:39:24.722Z,7.17
2018-11-12T14:41:55.500Z,7.87
2018-11-12T14:44:25.912Z,10.57
2018-11-12T14:46:56.259Z,10.87
2018-11-12T14:49:26.448Z,9.30
2018-11-12T14:51:59.457Z,9.53
2018-11-12T14:54:28.912Z,10.00
2018-11-12T14:56:59.828Z,9.47
2018-11-12T14:59:28.317Z,10.37
2018-11-12T15:01:57.100Z,9.50
2018-11-12T15:04:25.554Z,8.93
2018-11-12T15:06:54.209Z,11.47
2018-11-12T15:09:28.151Z,11.00
2018-11-12T15:11:57.679Z,10.30
2018-11-12T15:14:26.897Z,10.03
2018-11-12T15:20:30.364Z,10.37
2018-11-12T15:23:01.376Z,13.70
2018-11-12T15:25:40.392Z,13.23
2018-11-12T15:28:19.025Z,12.23
2018-11-12T15:43:32.295Z,14.67
2018-11-12T15:46:02.378Z,15.03
2018-11-12T15:51:19.552Z,15.17
2018-11-12T15:53:50.084Z,15.33
2018-11-12T15:56:19.882Z,15.50
2018-11-12T15:58:50.676Z,13.87
2018-11-12T16:01:22.741Z,12.83
2018-11-12T16:04:12.236Z,12.77
2018-11-12T16:41:44.465Z,13.40
2018-11-12T16:44:23.185Z,14.43
2018-11-12T16:47:06.430Z,16.50
2018-11-12T16:49:37.824Z,15.20
2018-11-12T16:54:45.159Z,17.17
2018-11-12T16:57:17.543Z,16.43
2018-11-12T16:59:47.615Z,16.00
2018-11-12T17:02:18.711Z,18.30
2018-11-12T17:04:48.670Z,16.97
2018-11-12T17:07:24.777Z,15.23
2018-11-12T17:10:01.244Z,18.40
2018-11-12T17:12:34.044Z,17.03
2018-11-12T17:15:03.149Z,16.40
2018-11-12T17:17:35.967Z,17.20
2018-11-12T17:20:07.282Z,16.03
2018-11-12T17:22:37.587Z,19.47
2018-11-12T17:25:10.887Z,18.07
2018-11-12T17:27:41.514Z,17.57
2018-11-12T17:30:10.877Z,19.70
2018-11-12T17:32:39.512Z,16.20
2018-11-12T17:35:08.826Z,18.93
2018-11-12T17:37:37.281Z,19.00
2018-11-12T17:40:08.684Z,15.93
2018-11-12T17:42:37.125Z,17.90
2018-11-12T17:45:07.584Z,17.67
2018-11-12T17:47:36.614Z,17.43
2018-11-12T17:50:06.477Z,16.97
2018-11-12T17:52:36.808Z,19.33
2018-11-12T17:58:03.597Z,16.77
2018-11-12T18:00:38.589Z,17.43
2018-11-12T18:09:02.942Z,22.50
2018-11-12T18:11:31.661Z,21.17
2018-11-12T18:14:00.340Z,20.87
2018-11-12T18:16:28.463Z,21.13
2018-11-12T18:18:57.048Z,22.47
2018-11-12T18:21:25.325Z,21.20
2018-11-12T18:23:53.665Z,22.53
2018-11-12T18:26:21.763Z,17.83
2018-11-12T18:28:50.071Z,19.97
2018-11-12T18:31:18.714Z,19.30
2018-11-12T18:33:46.835Z,18.73
2018-11-12T18:36:15.409Z,20.47
2018-11-12T18:38:43.600Z,20.73
2018-11-12T18:41:11.901Z,17.90
2018-11-12T18:43:40.622Z,20.23
2018-11-12T18:46:08.838Z,20.33
2018-11-12T18:48:37.027Z,19.07
2018-11-12T18:51:09.307Z,20.70
2018-11-12T18:53:37.853Z,19.80
2018-11-12T18:56:06.109Z,17.47
2018-11-12T18:58:34.264Z,22.60
2018-11-12T19:01:02.726Z,20.40
2018-11-12T19:03:30.938Z,18.97
2018-11-12T19:05:59.749Z,18.87
2018-11-12T19:08:27.924Z,19.90
2018-11-12T19:10:56.827Z,22.30
2018-11-12T19:13:24.924Z,19.43
2018-11-12T19:15:53.097Z,20.43
2018-11-12T19:18:21.421Z,17.47
2018-11-12T19:20:49.517Z,20.07
2018-11-12T19:23:18.255Z,21.73
2018-11-12T19:25:46.339Z,18.50
2018-11-12T19:28:14.617Z,21.00
2018-11-12T19:30:42.807Z,18.93
2018-11-12T19:33:11.049Z,19.07
2018-11-12T19:35:39.314Z,20.70
2018-11-12T19:38:07.412Z,19.90
2018-11-12T19:40:35.685Z,18.57
2018-11-12T19:43:03.637Z,18.73
2018-11-12T19:45:31.799Z,18.30
2018-11-12T19:47:59.937Z,20.30
2018-11-12T19:50:28.859Z,19.27
2018-11-12T19:52:58.897Z,17.47
2018-11-12T19:55:26.964Z,19.50
2018-11-12T19:57:55.881Z,19.13
2018-11-12T20:00:25.608Z,20.03
2018-11-12T20:02:54.994Z,19.57
2018-11-12T20:05:23.198Z,20.43
2018-11-12T20:07:51.528Z,17.67
2018-11-12T20:10:20.793Z,19.07
2018-11-12T20:12:49.063Z,21.90
2018-11-12T20:15:18.551Z,18.47
2018-11-12T20:17:47.549Z,19.57
2018-11-12T20:20:21.555Z,17.97
2018-11-12T20:22:50.298Z,14.27
2018-11-12T20:25:19.862Z,16.40
2018-11-12T20:28:06.277Z,16.27
2018-11-12T20:30:38.337Z,16.70
2018-11-12T20:33:07.561Z,18.13
2018-11-12T20:35:35.840Z,18.33
2018-11-12T20:38:04.159Z,17.03
2018-11-12T20:40:33.646Z,18.80
2018-11-12T20:43:03.855Z,19.00
2018-11-12T20:45:32.015Z,17.87
2018-11-12T20:48:01.299Z,19.43
2018-11-12T20:50:29.682Z,21.93
2018-11-12T20:52:58.209Z,15.60
2018-11-12T20:55:33.212Z,19.30
2018-11-12T20:58:09.211Z,18.90
2018-11-12T21:00:37.695Z,15.73
2018-11-12T21:03:05.976Z,17.40
2018-11-12T21:05:34.142Z,18.77
2018-11-12T21:08:03.250Z,17.87
2018-11-12T21:10:33.275Z,21.63
2018-11-12T21:13:17.774Z,19.63
2018-11-12T21:15:48.631Z,18.50
2018-11-12T21:18:25.163Z,19.57
2018-11-12T21:20:54.244Z,18.00
2018-11-12T21:23:31.505Z,21.20
2018-11-12T21:26:23.831Z,20.63
2018-11-12T21:28:57.866Z,17.60
2018-11-12T21:34:52.301Z,21.83
2018-11-12T21:37:23.663Z,20.67
2018-11-12T21:39:53.152Z,20.63
2018-11-12T21:42:24.098Z,21.40
2018-11-12T21:44:53.705Z,18.27
2018-11-12T21:47:22.290Z,18.53
2018-11-12T21:49:52.233Z,23.03
2018-11-12T21:54:56.105Z,21.30
2018-11-12T21:57:26.152Z,18.23
2018-11-12T22:00:21.790Z,18.17
2018-11-12T22:02:54.756Z,16.97
2018-11-12T22:05:23.915Z,19.73
2018-11-12T22:19:50.336Z,16.00
2018-11-12T22:55:21.088Z,19.07
